LaGrange, GA

1:20 PM EDT on July 01, 2015 (GMT -0400)
Lagrange-Callaway | | Change Station
CLOSE
Current Station
Airport
Location: La Grange,
Elevation: 692 ft
Nearby Weather Stations

Elev 692 ft 33.01 °N, 85.07 °W | Updated 25 minutes ago

Scattered Clouds
Scattered Clouds
84 °F
Feels Like 93 °F
N
5
Wind Variable Wind from West

Today
High -- | Low -- °F
--% Chance of Precip.
Yesterday
High -- | Low -- °F
Precip. -- in
6:35 AM 8:52 PM
Full, 100% visible
Pressure 30.09 in
Visibility 10.0 miles
Clouds Scattered Clouds 2000 ft
Heat Index 93 °F
Dew Point 76 °F
Humidity 78%
Rainfall 0.00 in
Snow Depth Not available.
UV 10 out of 12
Pollen 3.30 out of 12
Air Quality Not available.
Flu Activity Not available.
METAR KLGC 011655Z AUTO 26004KT 10SM SCT020 29/25 A3009 RMK AO2 T02890247

More Conditions Fewer Conditions

Pressure 30.09 in
Visibility 10.0 miles
Clouds Scattered Clouds 2000 ft
Heat Index 93 °F
Dew Point 76 °F
Humidity 78%
Rainfall 0.00 in
Snow Depth Not available.
UV 10 out of 12
Pollen 3.30 out of 12
Air Quality Not available.
Flu Activity Not available.
METAR KLGC 011655Z AUTO 26004KT 10SM SCT020 29/25 A3009 RMK AO2 T02890247

More Conditions Fewer Conditions

10-Day Weather Forecast

×

Almanac

Astronomy

Jul. 01, 2015 Rise Set
Actual Time
Civil Twilight
Nautical Twilight
Astronomical Twilight
Moon
Length of Visible Light
Length of Day
Tomorrow will be .
, % of the Moon is Illuminated

Today's Extremes

State Highs State Lows

Community

WunderPhotos

Upload Photos

1,834,216 photos uploaded!

WunderBlogs® & News

Nearby

Air Quality

  Air Quality AQ Index Pollutant
Not available.

Snow Depth

Station Depth Elevation

Earthquake Activity

City Distance Mag. Time & Date
Minimum magnitude displayed is 2.5.

Coastal Water Temperatures

Place Temperature

Stations

Nearby Weather Stations

Station Location Temp. Windchill Dew Point Humidity Wind Precip. Elev Updated Type